Time;durP1;ratioP1;P1;durP2;ratioP2;P2;SDS_P1;SDS_P2;PMS_P1;PMS_P2;Temp;Humidity;BMP_temperature;BMP_pressure;BME280_temperature;BME280_humidity;BME280_pressure;Samples;Min_cycle;Max_cycle;Signal;HPM_P1;HPM_P2
2023/03/16 00:00:38;;;;;;;;;;;;;;;13.75;65.30;101422.03;1272555;23;677;-67
2023/03/16 00:01:28;;;;;;;;;;;;;;;13.76;65.26;101422.88;1271591;23;606;-67
2023/03/16 00:02:19;;;;;;;;;;;;;;;13.77;65.62;101428.16;1273411;23;629;-68
2023/03/16 00:03:09;;;;;;;;;;;;;;;13.77;65.83;101427.28;1273659;23;792;-68
2023/03/16 00:03:59;;;;;;;;;;;;;;;13.76;65.93;101421.06;1272765;23;1888;-68
2023/03/16 00:04:50;;;;;;;;;;;;;;;13.77;65.69;101417.44;1273476;23;614;-68
2023/03/16 00:05:40;;;;;;;;;;;;;;;13.75;66.02;101423.84;1272653;23;602;-68
2023/03/16 00:06:31;;;;;;;;;;;;;;;13.70;65.37;101416.13;1271783;23;633;-67
2023/03/16 00:07:21;;;;;;;;;;;;;;;13.72;65.55;101416.03;1273130;23;602;-68
2023/03/16 00:08:12;;;;;;;;;;;;;;;13.73;65.61;101409.69;1273729;23;613;-68
2023/03/16 00:09:02;;;;;;;;;;;;;;;13.74;65.32;101411.41;1272666;23;630;-68
2023/03/16 00:09:53;;;;;;;;;;;;;;;13.73;65.51;101410.56;1271665;23;640;-68
2023/03/16 00:10:46;;;;;;;;;;;;;;;13.71;65.93;101406.28;1273184;23;609;-68
2023/03/16 00:11:37;;;;;;;;;;;;;;;13.72;65.85;101413.34;1273649;23;627;-68
2023/03/16 00:12:27;;;;;;;;;;;;;;;13.70;65.91;101408.09;1272689;23;649;-68
2023/03/16 00:13:17;;;;;;;;;;;;;;;13.70;66.25;101402.72;1272760;23;665;-68
2023/03/16 00:14:08;;;;;;;;;;;;;;;13.71;65.99;101403.59;1271819;23;618;-68
2023/03/16 00:14:58;;;;;;;;;;;;;;;13.72;66.33;101394.59;1271912;23;630;-68
2023/03/16 00:15:49;;;;;;;;;;;;;;;13.70;65.57;101399.19;1272890;23;602;-68
2023/03/16 00:16:40;;;;;;;;;;;;;;;13.69;65.46;101398.34;1271672;23;734;-68
2023/03/16 00:17:30;;;;;;;;;;;;;;;13.70;65.84;101407.22;1272746;23;629;-68
2023/03/16 00:18:21;;;;;;;;;;;;;;;13.69;66.10;101397.47;1274310;23;665;-68
2023/03/16 00:19:11;;;;;;;;;;;;;;;13.69;66.36;101394.81;1274400;23;663;-68
2023/03/16 00:20:05;;;;;;;;;;;;;;;13.71;65.68;101398.22;1272822;23;700;-68
2023/03/16 00:20:56;;;;;;;;;;;;;;;13.70;66.15;101391.16;1271977;23;736;-68
2023/03/16 00:21:47;;;;;;;;;;;;;;;13.70;65.60;101386.66;1273502;23;727;-68
2023/03/16 00:22:37;;;;;;;;;;;;;;;13.70;65.70;101392.03;1272725;23;622;-68
2023/03/16 00:23:28;;;;;;;;;;;;;;;13.72;65.60;101391.91;1272708;23;685;-68
2023/03/16 00:24:18;;;;;;;;;;;;;;;13.71;65.42;101384.84;1271073;23;1889;-68
2023/03/16 00:25:09;;;;;;;;;;;;;;;13.70;65.85;101383.97;1273244;23;677;-68
2023/03/16 00:26:01;;;;;;;;;;;;;;;13.72;66.16;101389.25;1273387;23;633;-68
2023/03/16 00:26:53;;;;;;;;;;;;;;;13.71;65.45;101382.16;1272021;23;616;-68
2023/03/16 00:27:44;;;;;;;;;;;;;;;13.70;65.99;101386.66;1272070;23;644;-68
2023/03/16 00:28:34;;;;;;;;;;;;;;;13.70;65.68;101378.63;1272684;23;637;-68
2023/03/16 00:29:25;;;;;;;;;;;;;;;13.70;65.72;101377.78;1272820;23;666;-68
2023/03/16 00:30:15;;;;;;;;;;;;;;;13.69;66.09;101382.28;1273574;23;680;-68
2023/03/16 00:31:05;;;;;;;;;;;;;;;13.68;66.14;101375.19;1272652;23;634;-68
2023/03/16 00:31:56;;;;;;;;;;;;;;;13.68;65.50;101379.69;1272847;23;638;-68
2023/03/16 00:32:46;;;;;;;;;;;;;;;13.69;65.85;101386.75;1272659;23;622;-68
2023/03/16 00:33:37;;;;;;;;;;;;;;;13.69;65.96;101373.38;1272081;23;630;-68
2023/03/16 00:34:28;;;;;;;;;;;;;;;13.69;65.36;101382.28;1272560;23;618;-68
2023/03/16 00:35:20;;;;;;;;;;;;;;;13.70;66.15;101372.41;1272147;23;610;-68
2023/03/16 00:36:10;;;;;;;;;;;;;;;13.67;66.10;101373.47;1271891;23;614;-68
2023/03/16 00:37:01;;;;;;;;;;;;;;;13.66;66.22;101365.53;1272869;23;638;-68
2023/03/16 00:37:56;;;;;;;;;;;;;;;13.68;65.41;101368.97;1271845;23;624;-68
2023/03/16 00:38:48;;;;;;;;;;;;;;;13.69;65.62;101373.38;1271657;23;657;-68
2023/03/16 00:39:38;;;;;;;;;;;;;;;13.69;65.44;101376.06;1271605;23;628;-68
2023/03/16 00:40:29;;;;;;;;;;;;;;;13.69;65.65;101382.28;1272587;23;606;-68
2023/03/16 00:41:21;;;;;;;;;;;;;;;13.66;66.31;101377.13;1271951;23;661;-68
2023/03/16 00:42:12;;;;;;;;;;;;;;;13.66;66.10;101370.91;1272650;23;637;-67
2023/03/16 00:43:02;;;;;;;;;;;;;;;13.65;66.03;101387.94;1272644;23;610;-68
2023/03/16 00:43:53;;;;;;;;;;;;;;;13.63;65.45;101381.81;1272732;23;713;-68
2023/03/16 00:44:43;;;;;;;;;;;;;;;13.62;66.03;101380.09;1272521;23;803;-68
2023/03/16 00:45:34;;;;;;;;;;;;;;;13.63;66.06;101379.16;1271898;23;677;-67
2023/03/16 00:46:25;;;;;;;;;;;;;;;13.64;65.63;101375.50;1272593;23;886;-68
2023/03/16 00:47:16;;;;;;;;;;;;;;;13.64;65.74;101384.41;1272012;23;634;-68
2023/03/16 00:48:06;;;;;;;;;;;;;;;13.63;66.08;101374.66;1274524;23;622;-68
2023/03/16 00:48:57;;;;;;;;;;;;;;;13.65;66.19;101380.75;1272714;23;660;-68
2023/03/16 00:49:47;;;;;;;;;;;;;;;13.66;65.79;101376.25;1274428;23;668;-68
2023/03/16 00:50:37;;;;;;;;;;;;;;;13.67;65.65;101372.63;1272685;23;661;-68
2023/03/16 00:51:29;;;;;;;;;;;;;;;13.66;65.81;101369.09;1272089;23;669;-68
2023/03/16 00:52:22;;;;;;;;;;;;;;;13.64;66.26;101364.78;1273595;23;795;-68
2023/03/16 00:53:12;;;;;;;;;;;;;;;13.63;66.20;101366.63;1271891;23;622;-68
2023/03/16 00:54:04;;;;;;;;;;;;;;;13.64;66.22;101362.97;1272762;23;688;-68
2023/03/16 00:54:54;;;;;;;;;;;;;;;13.62;66.32;101354.19;1272643;23;607;-68
2023/03/16 00:55:45;;;;;;;;;;;;;;;13.63;65.86;101355.91;1272726;23;724;-68
2023/03/16 00:56:35;;;;;;;;;;;;;;;13.63;65.58;101353.22;1273813;23;602;-68
2023/03/16 00:57:26;;;;;;;;;;;;;;;13.64;65.79;101351.41;1272692;23;700;-68
2023/03/16 00:58:17;;;;;;;;;;;;;;;13.64;66.22;101357.63;1271985;23;689;-68
2023/03/16 00:59:07;;;;;;;;;;;;;;;13.64;66.33;101348.72;1272677;23;661;-68
2023/03/16 00:59:58;;;;;;;;;;;;;;;13.64;66.33;101346.03;1271828;23;669;-68
2023/03/16 01:00:50;;;;;;;;;;;;;;;13.63;66.05;101347.88;1272598;23;637;-68
2023/03/16 01:01:40;;;;;;;;;;;;;;;13.62;65.87;101346.16;1273431;23;644;-68
2023/03/16 01:02:31;;;;;;;;;;;;;;;13.63;65.77;101347.00;1272757;23;684;-68
2023/03/16 01:03:21;;;;;;;;;;;;;;;13.61;65.81;101357.84;1271716;23;657;-68
2023/03/16 01:04:12;;;;;;;;;;;;;;;13.62;66.44;101354.19;1272593;23;1932;-68
2023/03/16 01:05:04;;;;;;;;;;;;;;;13.64;66.30;101343.38;1272644;23;634;-68
2023/03/16 01:05:59;;;;;;;;;;;;;;;13.63;65.87;101337.16;1271894;23;661;-68
2023/03/16 01:06:50;;;;;;;;;;;;;;;13.65;66.25;101342.41;1272579;23;643;-68
2023/03/16 01:07:41;;;;;;;;;;;;;;;13.63;66.43;101341.66;1271790;23;610;-68
2023/03/16 01:08:32;;;;;;;;;;;;;;;13.61;65.88;101339.13;1272684;23;761;-68
2023/03/16 01:09:22;;;;;;;;;;;;;;;13.63;66.15;101344.31;1272585;23;638;-67
2023/03/16 01:10:13;;;;;;;;;;;;;;;13.62;65.91;101337.25;1272530;23;780;-68
2023/03/16 01:11:03;;;;;;;;;;;;;;;13.62;66.15;101339.94;1273764;23;653;-68
2023/03/16 01:11:53;;;;;;;;;;;;;;;13.61;65.55;101335.56;1272718;23;699;-68
2023/03/16 01:12:44;;;;;;;;;;;;;;;13.61;66.54;101338.25;1272644;23;654;-68
2023/03/16 01:13:34;;;;;;;;;;;;;;;13.62;65.84;101340.78;1272417;23;707;-68
2023/03/16 01:14:25;;;;;;;;;;;;;;;13.61;65.97;101340.94;1272605;23;650;-68
2023/03/16 01:15:16;;;;;;;;;;;;;;;13.59;66.21;101348.22;1271910;23;665;-68
2023/03/16 01:16:07;;;;;;;;;;;;;;;13.58;66.41;101341.13;1272052;23;639;-68
2023/03/16 01:16:57;;;;;;;;;;;;;;;13.59;66.14;101340.19;1272566;23;650;-68
2023/03/16 01:17:48;;;;;;;;;;;;;;;13.58;65.97;101333.97;1272678;23;622;-68
2023/03/16 01:18:38;;;;;;;;;;;;;;;13.58;66.36;101338.47;1272551;23;657;-68
2023/03/16 01:19:29;;;;;;;;;;;;;;;13.58;65.90;101327.75;1272476;23;652;-68
2023/03/16 01:20:19;;;;;;;;;;;;;;;13.58;66.73;101327.75;1273517;23;656;-68
2023/03/16 01:21:12;;;;;;;;;;;;;;;13.55;66.80;101328.81;1272467;23;626;-68
2023/03/16 01:22:03;;;;;;;;;;;;;;;13.55;65.92;101324.31;1271814;23;638;-68
2023/03/16 01:22:53;;;;;;;;;;;;;;;13.58;66.19;101325.94;1272475;23;606;-68
2023/03/16 01:23:43;;;;;;;;;;;;;;;13.59;66.29;101326.78;1272621;23;650;-68
2023/03/16 01:24:34;;;;;;;;;;;;;;;13.58;66.12;101317.91;1272670;23;669;-68
2023/03/16 01:25:24;;;;;;;;;;;;;;;13.58;66.52;101322.41;1271974;23;606;-68
2023/03/16 01:26:16;;;;;;;;;;;;;;;13.58;66.61;101320.56;1272681;23;639;-68
2023/03/16 01:27:07;;;;;;;;;;;;;;;13.57;66.64;101318.84;1272000;23;681;-68
2023/03/16 01:27:57;;;;;;;;;;;;;;;13.57;66.71;101318.84;1272634;23;654;-68
2023/03/16 01:28:48;;;;;;;;;;;;;;;13.59;66.19;101318.75;1271788;23;803;-68
2023/03/16 01:29:38;;;;;;;;;;;;;;;13.58;66.26;101315.22;1271747;23;610;-68
2023/03/16 01:30:29;;;;;;;;;;;;;;;13.58;66.28;101315.22;1272599;23;618;-68
2023/03/16 01:31:19;;;;;;;;;;;;;;;13.55;66.80;101315.44;1272582;23;661;-68
2023/03/16 01:32:10;;;;;;;;;;;;;;;13.54;66.79;101308.34;1271945;23;637;-68
2023/03/16 01:33:01;;;;;;;;;;;;;;;13.52;66.52;101316.50;1272131;23;633;-68
2023/03/16 01:33:51;;;;;;;;;;;;;;;13.52;66.56;101315.63;1272434;23;642;-68
2023/03/16 01:34:42;;;;;;;;;;;;;;;13.53;66.83;101306.66;1272528;23;657;-68
2023/03/16 01:35:32;;;;;;;;;;;;;;;13.53;66.29;101312.00;1271406;23;602;-68
2023/03/16 01:36:23;;;;;;;;;;;;;;;13.51;66.40;101305.88;1272996;23;680;-68
2023/03/16 01:37:13;;;;;;;;;;;;;;;13.54;66.83;101311.88;1273470;23;720;-68
2023/03/16 01:38:04;;;;;;;;;;;;;;;13.53;66.52;101302.16;1272514;23;630;-68
2023/03/16 01:38:54;;;;;;;;;;;;;;;13.54;66.86;101303.84;1272661;23;597;-68
2023/03/16 01:39:45;;;;;;;;;;;;;;;13.53;66.72;101303.97;1271865;23;652;-68
2023/03/16 01:40:36;;;;;;;;;;;;;;;13.54;66.24;101308.34;1272491;23;680;-68
2023/03/16 01:41:27;;;;;;;;;;;;;;;13.53;66.06;101310.19;1271841;23;669;-68
2023/03/16 01:42:17;;;;;;;;;;;;;;;13.51;66.25;101304.06;1271713;23;704;-68
2023/03/16 01:43:08;;;;;;;;;;;;;;;13.48;66.91;101298.91;1272628;23;720;-68
2023/03/16 01:43:58;;;;;;;;;;;;;;;13.47;66.94;101297.22;1272526;23;634;-68
2023/03/16 01:44:48;;;;;;;;;;;;;;;13.47;67.07;101291.84;1272366;23;621;-68
2023/03/16 01:45:39;;;;;;;;;;;;;;;13.43;67.13;101286.84;1274210;23;625;-68
2023/03/16 01:46:29;;;;;;;;;;;;;;;13.45;66.52;101290.25;1272380;23;621;-68
2023/03/16 01:47:20;;;;;;;;;;;;;;;13.46;66.62;101284.78;1272787;23;649;-68
2023/03/16 01:48:10;;;;;;;;;;;;;;;13.47;66.88;101283.81;1272460;23;605;-68
2023/03/16 01:49:01;;;;;;;;;;;;;;;13.48;66.42;101282.84;1272547;23;685;-68
2023/03/16 01:49:53;;;;;;;;;;;;;;;13.50;66.17;101280.06;1273272;23;695;-68
2023/03/16 01:50:44;;;;;;;;;;;;;;;13.49;67.00;101273.88;1271934;23;633;-68
2023/03/16 01:51:34;;;;;;;;;;;;;;;13.47;66.22;101278.47;1272419;23;618;-68
2023/03/16 01:52:25;;;;;;;;;;;;;;;13.47;66.35;101274.94;1272819;23;684;-68
2023/03/16 01:53:15;;;;;;;;;;;;;;;13.47;66.81;101274.94;1271578;23;622;-68
2023/03/16 01:54:06;;;;;;;;;;;;;;;13.48;66.49;101271.28;1272253;23;688;-68
2023/03/16 01:54:56;;;;;;;;;;;;;;;13.47;66.76;101278.47;1274233;23;625;-68
2023/03/16 01:55:46;;;;;;;;;;;;;;;13.47;67.03;101273.09;1272527;23;625;-68
2023/03/16 01:56:37;;;;;;;;;;;;;;;13.48;66.25;101271.28;1272709;23;626;-68
2023/03/16 01:57:29;;;;;;;;;;;;;;;13.48;66.01;101276.66;1271712;23;594;-68
2023/03/16 01:58:20;;;;;;;;;;;;;;;13.48;66.88;101274.81;1272553;23;665;-68
2023/03/16 01:59:10;;;;;;;;;;;;;;;13.47;66.55;101270.44;1272496;23;614;-68
2023/03/16 02:00:07;;;;;;;;;;;;;;;13.47;66.36;101270.44;1271919;23;684;-68
2023/03/16 02:00:57;;;;;;;;;;;;;;;13.48;66.89;101274.81;1271744;23;606;-68
2023/03/16 02:01:48;;;;;;;;;;;;;;;13.47;66.32;101270.44;1272505;23;665;-68
2023/03/16 02:02:38;;;;;;;;;;;;;;;13.47;66.63;101272.25;1271538;23;658;-68
2023/03/16 02:03:29;;;;;;;;;;;;;;;13.47;66.96;101275.78;1272548;23;673;-68
2023/03/16 02:04:21;;;;;;;;;;;;;;;13.47;66.95;101270.44;1271591;23;1928;-68
2023/03/16 02:05:12;;;;;;;;;;;;;;;13.48;66.87;101271.28;1272611;23;669;-68
2023/03/16 02:06:02;;;;;;;;;;;;;;;13.47;66.67;101267.75;1272461;23;653;-68
2023/03/16 02:06:53;;;;;;;;;;;;;;;13.46;66.85;101266.03;1272662;23;638;-68
2023/03/16 02:07:43;;;;;;;;;;;;;;;13.47;66.81;101259.72;1271517;23;641;-68
2023/03/16 02:08:34;;;;;;;;;;;;;;;13.47;66.76;101253.50;1271830;23;716;-68
2023/03/16 02:09:25;;;;;;;;;;;;;;;13.46;66.48;101263.38;1272862;23;684;-68
2023/03/16 02:10:15;;;;;;;;;;;;;;;13.45;66.54;101269.69;1266819;23;676;-67
2023/03/16 02:11:06;;;;;;;;;;;;;;;13.45;66.24;101260.78;1273073;23;712;-68
2023/03/16 02:11:56;;;;;;;;;;;;;;;13.46;66.41;101258.00;1271530;23;613;-68
2023/03/16 02:12:47;;;;;;;;;;;;;;;13.46;66.91;101263.38;1272587;23;669;-68
2023/03/16 02:13:37;;;;;;;;;;;;;;;13.47;66.16;101259.72;1271495;23;630;-68
2023/03/16 02:14:27;;;;;;;;;;;;;;;13.46;66.69;101249.97;1272950;23;653;-68
2023/03/16 02:15:18;;;;;;;;;;;;;;;13.47;66.37;101251.69;1273306;23;727;-68
2023/03/16 02:16:08;;;;;;;;;;;;;;;13.49;66.74;101251.59;1271626;23;637;-68
2023/03/16 02:16:59;;;;;;;;;;;;;;;13.49;67.00;101251.59;1272469;23;691;-68
2023/03/16 02:17:49;;;;;;;;;;;;;;;13.48;66.36;101245.38;1272033;23;685;-68
2023/03/16 02:18:40;;;;;;;;;;;;;;;13.49;66.75;101247.09;1274126;23;681;-68
2023/03/16 02:19:30;;;;;;;;;;;;;;;13.50;66.27;101247.94;1272605;23;689;-67
2023/03/16 02:20:23;;;;;;;;;;;;;;;13.48;66.37;101245.38;1272400;23;622;-67
2023/03/16 02:21:15;;;;;;;;;;;;;;;13.47;66.54;101243.66;1272610;23;751;-68
2023/03/16 02:22:05;;;;;;;;;;;;;;;13.49;66.35;101246.22;1271589;23;662;-68
2023/03/16 02:22:56;;;;;;;;;;;;;;;13.50;67.14;101240.78;1272646;23;658;-68
2023/03/16 02:23:46;;;;;;;;;;;;;;;13.48;66.82;101240.03;1272680;23;634;-68
2023/03/16 02:24:37;;;;;;;;;;;;;;;13.49;67.31;101241.72;1272499;23;641;-68
2023/03/16 02:25:27;;;;;;;;;;;;;;;13.47;66.39;101240.97;1272590;23;685;-68
2023/03/16 02:26:17;;;;;;;;;;;;;;;13.47;66.62;101240.97;1271701;23;653;-67
2023/03/16 02:27:09;;;;;;;;;;;;;;;13.48;66.45;101244.53;1272522;23;575;-67
2023/03/16 02:27:59;;;;;;;;;;;;;;;13.48;66.29;101240.03;1271470;23;665;-68
2023/03/16 02:28:49;;;;;;;;;;;;;;;13.47;67.13;101238.31;1271690;23;622;-68
2023/03/16 02:29:40;;;;;;;;;;;;;;;13.48;66.55;101239.16;1272442;23;654;-68
2023/03/16 02:30:31;;;;;;;;;;;;;;;13.47;66.59;101240.13;1272527;23;737;-68
2023/03/16 02:31:21;;;;;;;;;;;;;;;13.47;66.43;101240.97;1272660;23;637;-68
2023/03/16 02:32:11;;;;;;;;;;;;;;;13.47;66.97;101232.09;1272458;23;633;-68
2023/03/16 02:33:03;;;;;;;;;;;;;;;13.46;66.81;101233.06;1272612;23;649;-68
2023/03/16 02:33:54;;;;;;;;;;;;;;;13.44;67.28;101235.84;1271793;23;638;-68
2023/03/16 02:34:44;;;;;;;;;;;;;;;13.44;67.12;101243.88;1272405;23;646;-68
2023/03/16 02:35:35;;;;;;;;;;;;;;;13.42;66.82;101240.47;1272655;23;657;-68
2023/03/16 02:36:25;;;;;;;;;;;;;;;13.40;66.51;101237.03;1272644;23;665;-68
2023/03/16 02:37:15;;;;;;;;;;;;;;;13.40;66.61;101238.88;1272598;23;673;-68
2023/03/16 02:38:06;;;;;;;;;;;;;;;13.38;67.05;101238.13;1273035;23;610;-68
2023/03/16 02:38:56;;;;;;;;;;;;;;;13.39;66.81;101239.81;1274351;23;641;-68
2023/03/16 02:39:47;;;;;;;;;;;;;;;13.41;67.27;101237.91;1272948;23;654;-68
2023/03/16 02:40:37;;;;;;;;;;;;;;;13.39;67.03;101246.03;1271644;23;669;-68
2023/03/16 02:41:28;;;;;;;;;;;;;;;13.39;66.62;101247.84;1272525;23;705;-68
2023/03/16 02:42:18;;;;;;;;;;;;;;;13.39;66.46;101237.16;1272640;23;572;-68
2023/03/16 02:43:09;;;;;;;;;;;;;;;13.38;66.77;101236.28;1272523;23;646;-68
2023/03/16 02:44:00;;;;;;;;;;;;;;;13.38;66.83;101236.28;1272631;23;666;-68
2023/03/16 02:44:50;;;;;;;;;;;;;;;13.40;66.43;101234.38;1271937;23;601;-68
2023/03/16 02:45:41;;;;;;;;;;;;;;;13.42;66.44;101235.13;1272390;23;617;-68
2023/03/16 02:46:34;;;;;;;;;;;;;;;13.43;66.84;101230.63;1271481;23;723;-67
2023/03/16 02:47:24;;;;;;;;;;;;;;;13.43;67.36;101241.34;1271521;23;658;-68
2023/03/16 02:48:15;;;;;;;;;;;;;;;13.41;67.08;101235.22;1272530;23;650;-68
2023/03/16 02:49:05;;;;;;;;;;;;;;;13.41;67.16;101236.09;1274189;23;676;-69
2023/03/16 02:49:56;;;;;;;;;;;;;;;13.41;67.09;101237.91;1272983;23;668;-68
2023/03/16 02:50:46;;;;;;;;;;;;;;;13.42;66.93;101240.47;1274627;23;664;-68
2023/03/16 02:51:37;;;;;;;;;;;;;;;13.41;66.45;101252.16;1272813;23;658;-68
2023/03/16 02:52:27;;;;;;;;;;;;;;;13.41;67.17;101236.09;1272388;23;680;-68
2023/03/16 02:53:18;;;;;;;;;;;;;;;13.42;66.81;101251.19;1272802;23;614;-68
2023/03/16 02:54:08;;;;;;;;;;;;;;;13.43;66.80;101247.53;1272068;23;603;-68
2023/03/16 02:54:59;;;;;;;;;;;;;;;13.43;66.83;101242.19;1273014;23;674;-68
2023/03/16 02:55:49;;;;;;;;;;;;;;;13.43;67.00;101235.97;1274589;23;622;-67
2023/03/16 02:56:40;;;;;;;;;;;;;;;13.44;66.50;101234.97;1272065;23;657;-68
2023/03/16 02:57:31;;;;;;;;;;;;;;;13.42;66.21;101237.78;1272114;23;614;-67
2023/03/16 02:58:21;;;;;;;;;;;;;;;13.43;66.95;101238.66;1274686;23;609;-68
2023/03/16 02:59:12;;;;;;;;;;;;;;;13.42;66.92;101231.59;1272866;23;658;-68
2023/03/16 03:00:09;;;;;;;;;;;;;;;13.42;66.53;101231.59;1273010;23;717;-67
2023/03/16 03:01:00;;;;;;;;;;;;;;;13.42;66.58;101236.94;1272287;23;646;-67
2023/03/16 03:01:50;;;;;;;;;;;;;;;13.41;66.94;101228.06;1272707;23;641;-67
2023/03/16 03:02:41;;;;;;;;;;;;;;;13.41;66.34;101227.19;1274590;23;688;-67
2023/03/16 03:03:33;;;;;;;;;;;;;;;13.40;66.30;101226.34;1272673;23;637;-67
2023/03/16 03:04:23;;;;;;;;;;;;;;;13.41;66.99;101230.72;1272198;23;1912;-67
2023/03/16 03:05:14;;;;;;;;;;;;;;;13.43;66.99;101226.13;1272053;23;661;-68
2023/03/16 03:06:04;;;;;;;;;;;;;;;13.45;67.05;101226.84;1274566;23;744;-68
2023/03/16 03:06:57;;;;;;;;;;;;;;;13.46;66.83;101227.69;1272238;23;679;-68
2023/03/16 03:07:48;;;;;;;;;;;;;;;13.46;66.23;101225.03;1272014;23;669;-67
2023/03/16 03:08:38;;;;;;;;;;;;;;;13.45;66.75;101232.19;1272949;23;753;-67
2023/03/16 03:09:28;;;;;;;;;;;;;;;13.44;66.33;101233.16;1274513;23;673;-67
2023/03/16 03:10:19;;;;;;;;;;;;;;;13.43;66.40;101226.13;1272835;23;688;-68
2023/03/16 03:11:09;;;;;;;;;;;;;;;13.42;67.11;101235.13;1274536;23;661;-68
2023/03/16 03:12:00;;;;;;;;;;;;;;;13.43;67.00;101235.97;1272881;23;696;-68
2023/03/16 03:12:50;;;;;;;;;;;;;;;13.41;66.33;101232.53;1274538;23;638;-68
2023/03/16 03:13:43;;;;;;;;;;;;;;;13.39;66.75;101229.97;1272858;23;665;-68
2023/03/16 03:14:36;;;;;;;;;;;;;;;13.41;67.20;101232.53;1271802;23;614;-68
2023/03/16 03:15:27;;;;;;;;;;;;;;;13.39;66.55;101229.13;1272912;23;693;-68
2023/03/16 03:16:17;;;;;;;;;;;;;;;13.39;67.18;101227.31;1272760;23;658;-68
2023/03/16 03:17:08;;;;;;;;;;;;;;;13.39;67.21;101226.44;1272833;23;806;-68
2023/03/16 03:17:58;;;;;;;;;;;;;;;13.37;67.12;101223.88;1274402;23;692;-68
2023/03/16 03:18:48;;;;;;;;;;;;;;;13.37;66.64;101226.56;1271893;23;649;-68
2023/03/16 03:19:39;;;;;;;;;;;;;;;13.38;67.04;101224.72;1272912;23;751;-68
2023/03/16 03:20:29;;;;;;;;;;;;;;;13.36;66.89;101232.00;1272727;23;669;-68
2023/03/16 03:21:20;;;;;;;;;;;;;;;13.36;66.40;101230.19;1272298;23;618;-68
2023/03/16 03:22:10;;;;;;;;;;;;;;;13.37;66.63;101231.03;1273001;23;685;-68
2023/03/16 03:23:01;;;;;;;;;;;;;;;13.37;67.00;101225.69;1272820;23;666;-68
2023/03/16 03:23:52;;;;;;;;;;;;;;;13.37;66.37;101221.19;1272993;23;661;-68
2023/03/16 03:24:43;;;;;;;;;;;;;;;13.38;67.05;101222.91;1272866;23;645;-68
2023/03/16 03:25:33;;;;;;;;;;;;;;;13.37;66.43;101220.34;1272850;23;630;-68
2023/03/16 03:26:24;;;;;;;;;;;;;;;13.38;66.25;101224.72;1272747;23;622;-68
2023/03/16 03:27:14;;;;;;;;;;;;;;;13.37;66.65;101220.34;1272209;23;621;-68
2023/03/16 03:28:04;;;;;;;;;;;;;;;13.37;66.99;101210.50;1274394;23;676;-68
2023/03/16 03:28:55;;;;;;;;;;;;;;;13.35;66.74;101214.22;1271908;23;693;-68
2023/03/16 03:29:45;;;;;;;;;;;;;;;13.33;66.99;101208.97;1274536;23;598;-67
2023/03/16 03:30:36;;;;;;;;;;;;;;;13.34;66.78;101217.88;1272763;23;613;-67
2023/03/16 03:31:26;;;;;;;;;;;;;;;13.35;67.09;101203.53;1272039;23;669;-67
2023/03/16 03:32:16;;;;;;;;;;;;;;;13.35;67.29;101211.56;1272794;23;606;-67
2023/03/16 03:33:07;;;;;;;;;;;;;;;13.35;67.17;101209.72;1272743;23;672;-68
2023/03/16 03:33:58;;;;;;;;;;;;;;;13.35;66.80;101201.69;1274606;23;619;-68
2023/03/16 03:34:48;;;;;;;;;;;;;;;13.36;66.41;101199.88;1271809;23;676;-68
2023/03/16 03:35:40;;;;;;;;;;;;;;;13.35;66.87;101206.19;1273875;23;692;-68
2023/03/16 03:36:31;;;;;;;;;;;;;;;13.33;66.47;101195.59;1271924;23;652;-68
2023/03/16 03:37:22;;;;;;;;;;;;;;;13.34;66.45;101197.31;1272619;23;610;-68
2023/03/16 03:38:12;;;;;;;;;;;;;;;13.34;66.58;101197.31;1272897;23;621;-68
2023/03/16 03:39:03;;;;;;;;;;;;;;;13.35;66.69;101198.16;1272739;23;668;-68
2023/03/16 03:39:54;;;;;;;;;;;;;;;13.32;67.02;101201.06;1271678;23;697;-68
2023/03/16 03:40:44;;;;;;;;;;;;;;;13.33;66.88;101200.94;1273379;23;684;-67
2023/03/16 03:41:35;;;;;;;;;;;;;;;13.33;66.30;101203.63;1273565;23;618;-68
2023/03/16 03:42:25;;;;;;;;;;;;;;;13.33;66.51;101192.91;1272910;23;638;-68
2023/03/16 03:43:16;;;;;;;;;;;;;;;13.33;67.20;101194.75;1272644;23;665;-68
2023/03/16 03:44:06;;;;;;;;;;;;;;;13.33;66.89;101200.09;1271688;23;1897;-68
2023/03/16 03:44:57;;;;;;;;;;;;;;;13.33;67.22;101187.56;1272828;23;625;-68
2023/03/16 03:45:47;;;;;;;;;;;;;;;13.34;66.27;101194.63;1272191;23;653;-68
2023/03/16 03:46:37;;;;;;;;;;;;;;;13.36;67.26;101192.72;1272679;23;630;-68
2023/03/16 03:47:28;;;;;;;;;;;;;;;13.38;66.74;101201.50;1272855;23;669;-68
2023/03/16 03:48:18;;;;;;;;;;;;;;;13.38;66.68;101195.28;1271874;23;630;-67
2023/03/16 03:49:09;;;;;;;;;;;;;;;13.36;66.41;101195.38;1272929;23;759;-68
2023/03/16 03:49:59;;;;;;;;;;;;;;;13.36;66.50;101192.72;1272907;23;642;-68
2023/03/16 03:50:50;;;;;;;;;;;;;;;13.34;66.79;101191.97;1272744;23;614;-68
2023/03/16 03:51:40;;;;;;;;;;;;;;;13.32;67.12;101191.22;1272857;23;662;-68
2023/03/16 03:52:31;;;;;;;;;;;;;;;13.32;66.59;101188.53;1272758;23;633;-68
2023/03/16 03:53:21;;;;;;;;;;;;;;;13.31;67.16;101189.50;1272019;23;696;-68
2023/03/16 03:54:11;;;;;;;;;;;;;;;13.30;67.19;101187.78;1271823;23;658;-67
2023/03/16 03:55:02;;;;;;;;;;;;;;;13.32;66.35;101190.34;1272679;23;855;-68
2023/03/16 03:55:52;;;;;;;;;;;;;;;13.30;67.28;101182.44;1272772;23;622;-68
2023/03/16 03:56:43;;;;;;;;;;;;;;;13.29;66.80;101178.03;1272793;23;626;-67
2023/03/16 03:57:33;;;;;;;;;;;;;;;13.29;67.14;101182.53;1272728;23;638;-68
2023/03/16 03:58:23;;;;;;;;;;;;;;;13.28;66.65;101179.00;1272642;23;637;-68
2023/03/16 03:59:14;;;;;;;;;;;;;;;13.27;67.02;101173.75;1272843;23;728;-68
2023/03/16 04:00:08;;;;;;;;;;;;;;;13.27;67.09;101168.41;1274656;23;635;-68
2023/03/16 04:00:58;;;;;;;;;;;;;;;13.29;66.58;101171.81;1271691;23;625;-68
2023/03/16 04:01:49;;;;;;;;;;;;;;;13.28;67.12;101178.16;1272616;23;634;-68
2023/03/16 04:02:39;;;;;;;;;;;;;;;13.28;67.19;101175.47;1274361;23;661;-68
2023/03/16 04:03:30;;;;;;;;;;;;;;;13.29;67.14;101178.03;1271733;23;587;-68
2023/03/16 04:04:20;;;;;;;;;;;;;;;13.31;67.37;101176.09;1272726;23;1932;-68
2023/03/16 04:05:11;;;;;;;;;;;;;;;13.31;66.56;101173.44;1271905;23;626;-68
2023/03/16 04:06:01;;;;;;;;;;;;;;;13.30;67.14;101177.06;1272089;23;642;-68
2023/03/16 04:06:52;;;;;;;;;;;;;;;13.31;67.08;101175.25;1271779;23;670;-68
2023/03/16 04:07:42;;;;;;;;;;;;;;;13.30;67.07;101170.88;1272803;23;693;-68
2023/03/16 04:08:32;;;;;;;;;;;;;;;13.29;66.69;101169.16;1274495;23;724;-68
2023/03/16 04:09:23;;;;;;;;;;;;;;;13.29;67.22;101169.16;1272880;23;737;-68
2023/03/16 04:10:13;;;;;;;;;;;;;;;13.30;66.72;101169.03;1271748;23;685;-68
2023/03/16 04:11:04;;;;;;;;;;;;;;;13.29;67.21;101170.00;1271799;23;637;-68
2023/03/16 04:11:56;;;;;;;;;;;;;;;13.29;66.55;101170.00;1272815;23;644;-68
2023/03/16 04:12:46;;;;;;;;;;;;;;;13.29;66.50;101164.66;1272728;23;755;-68
2023/03/16 04:13:37;;;;;;;;;;;;;;;13.30;66.80;101173.53;1272705;23;669;-68
2023/03/16 04:14:27;;;;;;;;;;;;;;;13.28;67.00;101168.28;1272827;23;625;-68
2023/03/16 04:15:18;;;;;;;;;;;;;;;13.29;67.26;101171.81;1272718;23;653;-67
2023/03/16 04:16:08;;;;;;;;;;;;;;;13.29;67.34;101166.47;1272769;23;654;-68
2023/03/16 04:16:58;;;;;;;;;;;;;;;13.27;66.74;101166.59;1273510;23;708;-68
2023/03/16 04:17:49;;;;;;;;;;;;;;;13.28;67.15;101168.28;1272716;23;630;-68
2023/03/16 04:18:39;;;;;;;;;;;;;;;13.28;66.56;101162.09;1271785;23;669;-68
2023/03/16 04:19:30;;;;;;;;;;;;;;;13.27;66.45;101163.91;1272682;23;649;-68
2023/03/16 04:20:20;;;;;;;;;;;;;;;13.30;66.67;101162.84;1273645;23;634;-68
2023/03/16 04:21:11;;;;;;;;;;;;;;;13.28;66.83;101162.94;1272646;23;625;-68
2023/03/16 04:22:01;;;;;;;;;;;;;;;13.27;67.17;101153.19;1271833;23;641;-68
2023/03/16 04:22:57;;;;;;;;;;;;;;;13.27;67.07;101155.03;1272728;23;673;-68
2023/03/16 04:23:47;;;;;;;;;;;;;;;13.26;66.90;101153.31;1272797;23;692;-68
2023/03/16 04:24:37;;;;;;;;;;;;;;;13.28;66.71;101156.72;1274325;23;645;-68
2023/03/16 04:25:29;;;;;;;;;;;;;;;13.28;67.21;101156.72;1272641;23;650;-67
2023/03/16 04:26:19;;;;;;;;;;;;;;;13.27;67.19;101153.19;1271703;23;633;-68
2023/03/16 04:27:10;;;;;;;;;;;;;;;13.26;67.48;101147.94;1272696;23;618;-68
2023/03/16 04:28:01;;;;;;;;;;;;;;;13.25;66.55;101156.97;1272017;23;673;-67